sensor_id;sensor_type;location;lat;lon;timestamp;P1;durP1;ratioP1;P2;durP2;ratioP2
64543;SDS011;50936;51.660;5.616;2024-02-21T00:02:17;21.67;;;8.70;;
64543;SDS011;50936;51.660;5.616;2024-02-21T00:05:05;17.88;;;7.07;;
64543;SDS011;50936;51.660;5.616;2024-02-21T00:07:52;18.48;;;7.55;;
64543;SDS011;50936;51.660;5.616;2024-02-21T00:10:39;22.00;;;7.28;;
64543;SDS011;50936;51.660;5.616;2024-02-21T00:13:27;17.60;;;6.68;;
64543;SDS011;50936;51.660;5.616;2024-02-21T00:16:14;20.85;;;6.65;;
64543;SDS011;50936;51.660;5.616;2024-02-21T00:19:02;19.70;;;7.38;;
64543;SDS011;50936;51.660;5.616;2024-02-21T00:21:50;16.17;;;6.65;;
64543;SDS011;50936;51.660;5.616;2024-02-21T00:24:37;18.02;;;6.38;;
64543;SDS011;50936;51.660;5.616;2024-02-21T00:27:24;17.20;;;7.15;;
64543;SDS011;50936;51.660;5.616;2024-02-21T00:30:12;18.08;;;6.28;;
64543;SDS011;50936;51.660;5.616;2024-02-21T00:32:59;24.15;;;8.43;;
64543;SDS011;50936;51.660;5.616;2024-02-21T00:35:47;15.23;;;6.25;;
64543;SDS011;50936;51.660;5.616;2024-02-21T00:38:34;18.20;;;6.03;;
64543;SDS011;50936;51.660;5.616;2024-02-21T00:41:21;21.25;;;6.53;;
64543;SDS011;50936;51.660;5.616;2024-02-21T00:44:08;23.55;;;8.32;;
64543;SDS011;50936;51.660;5.616;2024-02-21T00:46:57;17.30;;;7.47;;
64543;SDS011;50936;51.660;5.616;2024-02-21T00:49:44;19.90;;;6.65;;
64543;SDS011;50936;51.660;5.616;2024-02-21T00:52:31;15.88;;;6.63;;
64543;SDS011;50936;51.660;5.616;2024-02-21T00:55:18;19.60;;;7.97;;
64543;SDS011;50936;51.660;5.616;2024-02-21T00:58:06;18.80;;;7.10;;
64543;SDS011;50936;51.660;5.616;2024-02-21T01:00:53;21.25;;;7.15;;
64543;SDS011;50936;51.660;5.616;2024-02-21T01:03:40;16.52;;;6.53;;
64543;SDS011;50936;51.660;5.616;2024-02-21T01:06:28;19.30;;;6.88;;
64543;SDS011;50936;51.660;5.616;2024-02-21T01:09:15;18.35;;;7.68;;
64543;SDS011;50936;51.660;5.616;2024-02-21T01:12:02;23.33;;;7.80;;
64543;SDS011;50936;51.660;5.616;2024-02-21T01:14:50;22.02;;;7.13;;
64543;SDS011;50936;51.660;5.616;2024-02-21T01:17:37;16.92;;;7.65;;
64543;SDS011;50936;51.660;5.616;2024-02-21T01:20:27;23.45;;;6.65;;
64543;SDS011;50936;51.660;5.616;2024-02-21T01:23:14;21.25;;;7.22;;
64543;SDS011;50936;51.660;5.616;2024-02-21T01:26:02;20.23;;;7.03;;
64543;SDS011;50936;51.660;5.616;2024-02-21T01:28:50;15.57;;;5.93;;
64543;SDS011;50936;51.660;5.616;2024-02-21T01:31:38;17.10;;;7.00;;
64543;SDS011;50936;51.660;5.616;2024-02-21T01:34:25;19.80;;;7.40;;
64543;SDS011;50936;51.660;5.616;2024-02-21T01:37:16;15.10;;;6.45;;
64543;SDS011;50936;51.660;5.616;2024-02-21T01:40:03;20.15;;;7.13;;
64543;SDS011;50936;51.660;5.616;2024-02-21T01:42:51;19.33;;;7.05;;
64543;SDS011;50936;51.660;5.616;2024-02-21T01:45:41;16.58;;;6.72;;
64543;SDS011;50936;51.660;5.616;2024-02-21T01:48:28;20.00;;;7.45;;
64543;SDS011;50936;51.660;5.616;2024-02-21T01:51:16;17.42;;;6.80;;
64543;SDS011;50936;51.660;5.616;2024-02-21T01:54:04;22.77;;;7.13;;
64543;SDS011;50936;51.660;5.616;2024-02-21T01:56:52;17.45;;;5.88;;
64543;SDS011;50936;51.660;5.616;2024-02-21T01:59:39;18.15;;;5.45;;
64543;SDS011;50936;51.660;5.616;2024-02-21T02:02:27;15.10;;;5.97;;
64543;SDS011;50936;51.660;5.616;2024-02-21T02:05:14;12.88;;;5.82;;
64543;SDS011;50936;51.660;5.616;2024-02-21T02:08:04;15.63;;;5.43;;
64543;SDS011;50936;51.660;5.616;2024-02-21T02:10:51;17.13;;;5.85;;
64543;SDS011;50936;51.660;5.616;2024-02-21T02:13:39;16.15;;;5.25;;
64543;SDS011;50936;51.660;5.616;2024-02-21T02:16:26;19.13;;;6.18;;
64543;SDS011;50936;51.660;5.616;2024-02-21T02:19:14;16.33;;;5.72;;
64543;SDS011;50936;51.660;5.616;2024-02-21T02:22:14;13.65;;;5.60;;
64543;SDS011;50936;51.660;5.616;2024-02-21T02:25:09;14.27;;;5.82;;
64543;SDS011;50936;51.660;5.616;2024-02-21T02:27:56;13.07;;;5.03;;
64543;SDS011;50936;51.660;5.616;2024-02-21T02:30:43;13.65;;;5.38;;
64543;SDS011;50936;51.660;5.616;2024-02-21T02:33:30;13.93;;;4.63;;
64543;SDS011;50936;51.660;5.616;2024-02-21T02:36:18;14.38;;;4.85;;
64543;SDS011;50936;51.660;5.616;2024-02-21T02:39:05;18.45;;;4.85;;
64543;SDS011;50936;51.660;5.616;2024-02-21T02:41:53;15.48;;;5.63;;
64543;SDS011;50936;51.660;5.616;2024-02-21T02:44:40;15.90;;;4.68;;
64543;SDS011;50936;51.660;5.616;2024-02-21T02:47:27;13.60;;;4.57;;
64543;SDS011;50936;51.660;5.616;2024-02-21T02:50:15;15.27;;;4.07;;
64543;SDS011;50936;51.660;5.616;2024-02-21T02:53:02;13.10;;;4.35;;
64543;SDS011;50936;51.660;5.616;2024-02-21T02:55:50;14.57;;;4.93;;
64543;SDS011;50936;51.660;5.616;2024-02-21T02:58:37;10.45;;;4.25;;
64543;SDS011;50936;51.660;5.616;2024-02-21T03:01:24;17.10;;;5.43;;
64543;SDS011;50936;51.660;5.616;2024-02-21T03:04:11;10.38;;;3.90;;
64543;SDS011;50936;51.660;5.616;2024-02-21T03:06:59;8.95;;;3.70;;
64543;SDS011;50936;51.660;5.616;2024-02-21T03:09:46;7.88;;;3.63;;
64543;SDS011;50936;51.660;5.616;2024-02-21T03:12:33;11.15;;;3.85;;
64543;SDS011;50936;51.660;5.616;2024-02-21T03:15:20;16.55;;;5.10;;
64543;SDS011;50936;51.660;5.616;2024-02-21T03:18:08;14.48;;;4.80;;
64543;SDS011;50936;51.660;5.616;2024-02-21T03:20:56;7.13;;;3.10;;
64543;SDS011;50936;51.660;5.616;2024-02-21T03:23:43;12.25;;;4.55;;
64543;SDS011;50936;51.660;5.616;2024-02-21T03:26:30;13.07;;;4.60;;
64543;SDS011;50936;51.660;5.616;2024-02-21T03:29:18;6.63;;;3.15;;
64543;SDS011;50936;51.660;5.616;2024-02-21T03:32:05;6.55;;;3.17;;
64543;SDS011;50936;51.660;5.616;2024-02-21T03:34:53;11.95;;;4.10;;
64543;SDS011;50936;51.660;5.616;2024-02-21T03:37:40;13.45;;;4.72;;
64543;SDS011;50936;51.660;5.616;2024-02-21T03:40:27;11.32;;;4.70;;
64543;SDS011;50936;51.660;5.616;2024-02-21T03:43:15;15.27;;;4.38;;
64543;SDS011;50936;51.660;5.616;2024-02-21T03:46:02;14.13;;;4.53;;
64543;SDS011;50936;51.660;5.616;2024-02-21T03:48:49;13.82;;;4.70;;
64543;SDS011;50936;51.660;5.616;2024-02-21T03:51:36;9.63;;;4.38;;
64543;SDS011;50936;51.660;5.616;2024-02-21T03:54:24;13.43;;;4.57;;
64543;SDS011;50936;51.660;5.616;2024-02-21T03:57:11;13.85;;;4.60;;
64543;SDS011;50936;51.660;5.616;2024-02-21T03:59:58;10.25;;;3.55;;
64543;SDS011;50936;51.660;5.616;2024-02-21T04:02:45;11.10;;;4.28;;
64543;SDS011;50936;51.660;5.616;2024-02-21T04:05:33;16.90;;;3.90;;
64543;SDS011;50936;51.660;5.616;2024-02-21T04:08:20;12.32;;;3.58;;
64543;SDS011;50936;51.660;5.616;2024-02-21T04:11:09;11.30;;;3.90;;
64543;SDS011;50936;51.660;5.616;2024-02-21T04:13:56;18.90;;;4.78;;
64543;SDS011;50936;51.660;5.616;2024-02-21T04:16:43;11.90;;;3.90;;
64543;SDS011;50936;51.660;5.616;2024-02-21T04:19:31;13.60;;;4.70;;
64543;SDS011;50936;51.660;5.616;2024-02-21T04:22:18;9.75;;;4.28;;
64543;SDS011;50936;51.660;5.616;2024-02-21T04:25:06;10.48;;;3.83;;
64543;SDS011;50936;51.660;5.616;2024-02-21T04:27:53;12.90;;;5.07;;
64543;SDS011;50936;51.660;5.616;2024-02-21T04:30:40;9.98;;;4.00;;
64543;SDS011;50936;51.660;5.616;2024-02-21T04:33:27;9.50;;;4.28;;
64543;SDS011;50936;51.660;5.616;2024-02-21T04:36:15;12.35;;;4.78;;
64543;SDS011;50936;51.660;5.616;2024-02-21T04:39:02;12.07;;;4.45;;
64543;SDS011;50936;51.660;5.616;2024-02-21T04:41:49;13.82;;;4.07;;
64543;SDS011;50936;51.660;5.616;2024-02-21T04:44:36;12.05;;;3.95;;
64543;SDS011;50936;51.660;5.616;2024-02-21T04:47:24;12.18;;;4.22;;
64543;SDS011;50936;51.660;5.616;2024-02-21T04:50:11;13.60;;;5.00;;
64543;SDS011;50936;51.660;5.616;2024-02-21T04:53:00;10.93;;;4.38;;
64543;SDS011;50936;51.660;5.616;2024-02-21T04:55:47;14.57;;;4.80;;
64543;SDS011;50936;51.660;5.616;2024-02-21T04:58:37;14.15;;;5.07;;
64543;SDS011;50936;51.660;5.616;2024-02-21T05:01:27;15.80;;;4.97;;
64543;SDS011;50936;51.660;5.616;2024-02-21T05:04:15;11.52;;;5.20;;
64543;SDS011;50936;51.660;5.616;2024-02-21T05:07:02;15.73;;;5.65;;
64543;SDS011;50936;51.660;5.616;2024-02-21T05:09:50;13.15;;;5.03;;
64543;SDS011;50936;51.660;5.616;2024-02-21T05:12:37;13.20;;;4.75;;
64543;SDS011;50936;51.660;5.616;2024-02-21T05:15:25;13.70;;;5.30;;
64543;SDS011;50936;51.660;5.616;2024-02-21T05:18:12;10.38;;;4.55;;
64543;SDS011;50936;51.660;5.616;2024-02-21T05:21:00;12.98;;;4.75;;
64543;SDS011;50936;51.660;5.616;2024-02-21T05:23:48;13.88;;;5.53;;
64543;SDS011;50936;51.660;5.616;2024-02-21T05:26:35;10.82;;;4.28;;
64543;SDS011;50936;51.660;5.616;2024-02-21T05:29:22;13.75;;;5.15;;
64543;SDS011;50936;51.660;5.616;2024-02-21T05:32:09;14.77;;;5.03;;
64543;SDS011;50936;51.660;5.616;2024-02-21T05:34:59;17.80;;;6.65;;
64543;SDS011;50936;51.660;5.616;2024-02-21T05:37:46;16.00;;;5.47;;
64543;SDS011;50936;51.660;5.616;2024-02-21T05:40:35;12.65;;;4.80;;
64543;SDS011;50936;51.660;5.616;2024-02-21T05:43:22;19.25;;;6.15;;
64543;SDS011;50936;51.660;5.616;2024-02-21T05:46:09;14.50;;;5.95;;
64543;SDS011;50936;51.660;5.616;2024-02-21T05:48:56;14.70;;;6.15;;
64543;SDS011;50936;51.660;5.616;2024-02-21T05:51:44;16.02;;;6.30;;
64543;SDS011;50936;51.660;5.616;2024-02-21T05:54:32;17.83;;;6.53;;
64543;SDS011;50936;51.660;5.616;2024-02-21T05:57:19;16.27;;;6.28;;
64543;SDS011;50936;51.660;5.616;2024-02-21T06:00:07;17.45;;;5.85;;
64543;SDS011;50936;51.660;5.616;2024-02-21T06:03:00;13.23;;;5.35;;
64543;SDS011;50936;51.660;5.616;2024-02-21T06:05:48;20.35;;;5.75;;
64543;SDS011;50936;51.660;5.616;2024-02-21T06:08:35;12.48;;;4.70;;
64543;SDS011;50936;51.660;5.616;2024-02-21T06:11:23;18.20;;;6.40;;
64543;SDS011;50936;51.660;5.616;2024-02-21T06:14:10;15.27;;;5.30;;
64543;SDS011;50936;51.660;5.616;2024-02-21T06:16:57;14.60;;;6.30;;
64543;SDS011;50936;51.660;5.616;2024-02-21T06:19:45;15.77;;;5.30;;
64543;SDS011;50936;51.660;5.616;2024-02-21T06:22:32;13.30;;;5.47;;
64543;SDS011;50936;51.660;5.616;2024-02-21T06:25:21;13.52;;;4.97;;
64543;SDS011;50936;51.660;5.616;2024-02-21T06:28:08;16.80;;;5.32;;
64543;SDS011;50936;51.660;5.616;2024-02-21T06:30:56;15.00;;;5.13;;
64543;SDS011;50936;51.660;5.616;2024-02-21T06:33:43;12.80;;;5.95;;
64543;SDS011;50936;51.660;5.616;2024-02-21T06:36:30;13.55;;;5.55;;
64543;SDS011;50936;51.660;5.616;2024-02-21T06:39:18;20.08;;;6.15;;
64543;SDS011;50936;51.660;5.616;2024-02-21T06:42:05;14.75;;;4.93;;
64543;SDS011;50936;51.660;5.616;2024-02-21T06:44:52;11.93;;;5.18;;
64543;SDS011;50936;51.660;5.616;2024-02-21T06:47:40;13.43;;;5.55;;
64543;SDS011;50936;51.660;5.616;2024-02-21T06:50:27;13.60;;;5.00;;
64543;SDS011;50936;51.660;5.616;2024-02-21T06:53:14;15.02;;;5.97;;
64543;SDS011;50936;51.660;5.616;2024-02-21T06:56:02;15.13;;;6.18;;
64543;SDS011;50936;51.660;5.616;2024-02-21T06:58:50;14.75;;;5.30;;
64543;SDS011;50936;51.660;5.616;2024-02-21T07:01:37;18.33;;;6.65;;
64543;SDS011;50936;51.660;5.616;2024-02-21T07:04:25;16.13;;;5.22;;
64543;SDS011;50936;51.660;5.616;2024-02-21T07:07:12;14.43;;;5.53;;
64543;SDS011;50936;51.660;5.616;2024-02-21T07:09:59;19.45;;;6.32;;
64543;SDS011;50936;51.660;5.616;2024-02-21T07:12:47;13.77;;;5.57;;
64543;SDS011;50936;51.660;5.616;2024-02-21T07:15:35;17.05;;;6.22;;
64543;SDS011;50936;51.660;5.616;2024-02-21T07:18:23;17.38;;;6.05;;
64543;SDS011;50936;51.660;5.616;2024-02-21T07:21:12;18.50;;;5.75;;
64543;SDS011;50936;51.660;5.616;2024-02-21T07:23:59;14.93;;;6.65;;
64543;SDS011;50936;51.660;5.616;2024-02-21T07:26:46;18.35;;;6.65;;
64543;SDS011;50936;51.660;5.616;2024-02-21T07:29:34;15.23;;;7.18;;
64543;SDS011;50936;51.660;5.616;2024-02-21T07:32:21;18.27;;;6.95;;
64543;SDS011;50936;51.660;5.616;2024-02-21T07:35:08;15.70;;;6.40;;
64543;SDS011;50936;51.660;5.616;2024-02-21T07:37:59;19.13;;;6.88;;
64543;SDS011;50936;51.660;5.616;2024-02-21T07:40:46;11.68;;;4.80;;
64543;SDS011;50936;51.660;5.616;2024-02-21T07:43:33;14.45;;;5.13;;
64543;SDS011;50936;51.660;5.616;2024-02-21T07:46:21;18.75;;;6.03;;
64543;SDS011;50936;51.660;5.616;2024-02-21T07:49:08;13.77;;;6.25;;
64543;SDS011;50936;51.660;5.616;2024-02-21T07:51:56;18.13;;;6.82;;
64543;SDS011;50936;51.660;5.616;2024-02-21T07:54:43;14.73;;;6.63;;
64543;SDS011;50936;51.660;5.616;2024-02-21T07:57:30;14.48;;;5.63;;
64543;SDS011;50936;51.660;5.616;2024-02-21T08:00:18;15.18;;;5.65;;
64543;SDS011;50936;51.660;5.616;2024-02-21T08:03:08;12.40;;;6.57;;
64543;SDS011;50936;51.660;5.616;2024-02-21T08:05:56;13.45;;;6.13;;
64543;SDS011;50936;51.660;5.616;2024-02-21T08:08:43;17.63;;;6.43;;
64543;SDS011;50936;51.660;5.616;2024-02-21T08:11:30;12.13;;;5.55;;
64543;SDS011;50936;51.660;5.616;2024-02-21T08:14:17;16.10;;;6.28;;
64543;SDS011;50936;51.660;5.616;2024-02-21T08:17:07;13.45;;;5.50;;
64543;SDS011;50936;51.660;5.616;2024-02-21T08:19:54;12.20;;;5.55;;
64543;SDS011;50936;51.660;5.616;2024-02-21T08:22:41;12.80;;;5.68;;
64543;SDS011;50936;51.660;5.616;2024-02-21T08:25:28;13.00;;;5.45;;
64543;SDS011;50936;51.660;5.616;2024-02-21T08:28:16;14.63;;;5.57;;
64543;SDS011;50936;51.660;5.616;2024-02-21T08:31:03;11.25;;;5.53;;
64543;SDS011;50936;51.660;5.616;2024-02-21T08:33:50;13.85;;;5.65;;
64543;SDS011;50936;51.660;5.616;2024-02-21T08:36:38;12.30;;;5.28;;
64543;SDS011;50936;51.660;5.616;2024-02-21T08:39:25;9.70;;;4.93;;
64543;SDS011;50936;51.660;5.616;2024-02-21T08:42:15;11.55;;;4.40;;
64543;SDS011;50936;51.660;5.616;2024-02-21T08:45:02;11.52;;;4.88;;
64543;SDS011;50936;51.660;5.616;2024-02-21T08:47:50;10.13;;;4.28;;
64543;SDS011;50936;51.660;5.616;2024-02-21T08:50:38;9.40;;;4.72;;
64543;SDS011;50936;51.660;5.616;2024-02-21T08:53:25;9.63;;;4.25;;
64543;SDS011;50936;51.660;5.616;2024-02-21T08:56:13;10.55;;;5.05;;
64543;SDS011;50936;51.660;5.616;2024-02-21T08:59:01;11.43;;;5.07;;
64543;SDS011;50936;51.660;5.616;2024-02-21T09:01:49;8.13;;;3.92;;
64543;SDS011;50936;51.660;5.616;2024-02-21T09:04:36;8.98;;;3.65;;
64543;SDS011;50936;51.660;5.616;2024-02-21T09:07:23;9.82;;;4.68;;
64543;SDS011;50936;51.660;5.616;2024-02-21T09:10:11;9.88;;;4.05;;
64543;SDS011;50936;51.660;5.616;2024-02-21T09:12:58;11.55;;;4.32;;
64543;SDS011;50936;51.660;5.616;2024-02-21T09:15:45;10.60;;;4.68;;
64543;SDS011;50936;51.660;5.616;2024-02-21T09:18:33;10.35;;;4.40;;
64543;SDS011;50936;51.660;5.616;2024-02-21T09:21:21;9.77;;;4.07;;
64543;SDS011;50936;51.660;5.616;2024-02-21T09:24:08;9.50;;;3.83;;
64543;SDS011;50936;51.660;5.616;2024-02-21T09:26:55;8.70;;;4.80;;
64543;SDS011;50936;51.660;5.616;2024-02-21T09:29:42;10.52;;;4.50;;
64543;SDS011;50936;51.660;5.616;2024-02-21T09:32:30;8.00;;;4.38;;
64543;SDS011;50936;51.660;5.616;2024-02-21T09:35:17;8.40;;;4.00;;
64543;SDS011;50936;51.660;5.616;2024-02-21T09:38:04;9.30;;;3.70;;
64543;SDS011;50936;51.660;5.616;2024-02-21T09:41:07;10.40;;;3.55;;
64543;SDS011;50936;51.660;5.616;2024-02-21T09:44:12;7.95;;;4.00;;
64543;SDS011;50936;51.660;5.616;2024-02-21T09:47:06;10.00;;;3.95;;
64543;SDS011;50936;51.660;5.616;2024-02-21T09:49:59;8.57;;;4.13;;
64543;SDS011;50936;51.660;5.616;2024-02-21T09:52:51;9.35;;;4.97;;
64543;SDS011;50936;51.660;5.616;2024-02-21T09:55:41;12.32;;;5.35;;
64543;SDS011;50936;51.660;5.616;2024-02-21T09:58:31;11.10;;;5.28;;
64543;SDS011;50936;51.660;5.616;2024-02-21T10:01:18;9.88;;;4.80;;
64543;SDS011;50936;51.660;5.616;2024-02-21T10:04:20;12.60;;;5.20;;
64543;SDS011;50936;51.660;5.616;2024-02-21T10:07:08;10.23;;;4.97;;
64543;SDS011;50936;51.660;5.616;2024-02-21T10:10:02;10.15;;;4.93;;
64543;SDS011;50936;51.660;5.616;2024-02-21T10:15:44;14.35;;;6.35;;
64543;SDS011;50936;51.660;5.616;2024-02-21T10:18:36;11.85;;;4.90;;
64543;SDS011;50936;51.660;5.616;2024-02-21T10:21:24;13.38;;;5.78;;
64543;SDS011;50936;51.660;5.616;2024-02-21T10:24:11;10.05;;;4.63;;
64543;SDS011;50936;51.660;5.616;2024-02-21T10:27:01;14.20;;;5.57;;
64543;SDS011;50936;51.660;5.616;2024-02-21T10:29:55;9.68;;;4.95;;
64543;SDS011;50936;51.660;5.616;2024-02-21T10:32:51;10.40;;;4.78;;
64543;SDS011;50936;51.660;5.616;2024-02-21T10:35:41;9.93;;;4.95;;
64543;SDS011;50936;51.660;5.616;2024-02-21T10:38:29;12.18;;;5.75;;
64543;SDS011;50936;51.660;5.616;2024-02-21T10:41:16;7.85;;;4.03;;
64543;SDS011;50936;51.660;5.616;2024-02-21T10:49:46;6.20;;;2.92;;
64543;SDS011;50936;51.660;5.616;2024-02-21T10:52:46;13.63;;;5.28;;
64543;SDS011;50936;51.660;5.616;2024-02-21T10:55:50;11.82;;;4.75;;
64543;SDS011;50936;51.660;5.616;2024-02-21T10:58:55;9.90;;;4.97;;
64543;SDS011;50936;51.660;5.616;2024-02-21T11:01:49;10.43;;;5.10;;
64543;SDS011;50936;51.660;5.616;2024-02-21T11:04:36;13.75;;;5.00;;
64543;SDS011;50936;51.660;5.616;2024-02-21T11:07:25;11.23;;;4.72;;
64543;SDS011;50936;51.660;5.616;2024-02-21T11:10:20;7.60;;;3.67;;
64543;SDS011;50936;51.660;5.616;2024-02-21T11:13:11;11.93;;;3.55;;
64543;SDS011;50936;51.660;5.616;2024-02-21T11:16:08;10.75;;;4.00;;
64543;SDS011;50936;51.660;5.616;2024-02-21T11:19:07;7.93;;;3.80;;
64543;SDS011;50936;51.660;5.616;2024-02-21T11:21:57;10.95;;;4.20;;
64543;SDS011;50936;51.660;5.616;2024-02-21T11:24:50;8.18;;;3.50;;
64543;SDS011;50936;51.660;5.616;2024-02-21T11:27:38;9.88;;;3.90;;
64543;SDS011;50936;51.660;5.616;2024-02-21T11:30:32;12.30;;;4.30;;
64543;SDS011;50936;51.660;5.616;2024-02-21T11:33:22;7.47;;;3.75;;
64543;SDS011;50936;51.660;5.616;2024-02-21T11:36:10;12.93;;;4.35;;
64543;SDS011;50936;51.660;5.616;2024-02-21T11:39:04;10.20;;;3.47;;
64543;SDS011;50936;51.660;5.616;2024-02-21T11:47:44;8.55;;;4.05;;
64543;SDS011;50936;51.660;5.616;2024-02-21T11:50:31;13.38;;;3.95;;
64543;SDS011;50936;51.660;5.616;2024-02-21T11:53:18;9.52;;;4.03;;
64543;SDS011;50936;51.660;5.616;2024-02-21T11:56:07;8.80;;;3.78;;
64543;SDS011;50936;51.660;5.616;2024-02-21T11:58:55;9.50;;;3.55;;
64543;SDS011;50936;51.660;5.616;2024-02-21T12:01:46;9.15;;;4.22;;
64543;SDS011;50936;51.660;5.616;2024-02-21T12:04:35;6.78;;;3.58;;
64543;SDS011;50936;51.660;5.616;2024-02-21T12:07:23;9.23;;;3.80;;
64543;SDS011;50936;51.660;5.616;2024-02-21T12:10:11;6.75;;;3.42;;
64543;SDS011;50936;51.660;5.616;2024-02-21T12:13:06;10.20;;;4.18;;
64543;SDS011;50936;51.660;5.616;2024-02-21T12:15:55;10.35;;;3.85;;
64543;SDS011;50936;51.660;5.616;2024-02-21T12:18:42;9.82;;;4.32;;
64543;SDS011;50936;51.660;5.616;2024-02-21T12:21:30;7.30;;;3.92;;
64543;SDS011;50936;51.660;5.616;2024-02-21T12:24:23;6.57;;;3.40;;
64543;SDS011;50936;51.660;5.616;2024-02-21T12:27:12;6.43;;;3.05;;
64543;SDS011;50936;51.660;5.616;2024-02-21T12:30:00;8.45;;;3.55;;
64543;SDS011;50936;51.660;5.616;2024-02-21T12:32:48;7.32;;;3.95;;
64543;SDS011;50936;51.660;5.616;2024-02-21T12:35:35;5.80;;;3.17;;
64543;SDS011;50936;51.660;5.616;2024-02-21T12:38:23;7.07;;;3.88;;
64543;SDS011;50936;51.660;5.616;2024-02-21T12:41:10;6.72;;;3.22;;
64543;SDS011;50936;51.660;5.616;2024-02-21T12:43:57;8.52;;;3.38;;
64543;SDS011;50936;51.660;5.616;2024-02-21T12:46:45;11.07;;;4.10;;
64543;SDS011;50936;51.660;5.616;2024-02-21T12:49:32;8.32;;;3.20;;
64543;SDS011;50936;51.660;5.616;2024-02-21T12:52:20;10.10;;;3.63;;
64543;SDS011;50936;51.660;5.616;2024-02-21T12:55:07;9.38;;;3.20;;
64543;SDS011;50936;51.660;5.616;2024-02-21T12:58:00;5.93;;;3.03;;
64543;SDS011;50936;51.660;5.616;2024-02-21T13:00:52;9.35;;;3.50;;
64543;SDS011;50936;51.660;5.616;2024-02-21T13:03:40;9.20;;;3.17;;
64543;SDS011;50936;51.660;5.616;2024-02-21T13:06:27;8.73;;;3.28;;
64543;SDS011;50936;51.660;5.616;2024-02-21T13:09:14;10.25;;;3.20;;
64543;SDS011;50936;51.660;5.616;2024-02-21T13:12:02;12.50;;;3.92;;
64543;SDS011;50936;51.660;5.616;2024-02-21T13:14:50;6.78;;;2.90;;
64543;SDS011;50936;51.660;5.616;2024-02-21T13:17:37;8.27;;;3.60;;
64543;SDS011;50936;51.660;5.616;2024-02-21T13:20:27;7.03;;;2.88;;
64543;SDS011;50936;51.660;5.616;2024-02-21T13:23:16;8.38;;;2.75;;
64543;SDS011;50936;51.660;5.616;2024-02-21T13:26:05;7.22;;;3.40;;
64543;SDS011;50936;51.660;5.616;2024-02-21T13:28:53;7.28;;;3.10;;
64543;SDS011;50936;51.660;5.616;2024-02-21T13:31:41;7.63;;;3.15;;
64543;SDS011;50936;51.660;5.616;2024-02-21T13:34:30;5.57;;;3.05;;
64543;SDS011;50936;51.660;5.616;2024-02-21T13:37:18;8.10;;;3.40;;
64543;SDS011;50936;51.660;5.616;2024-02-21T13:40:05;9.48;;;3.13;;
64543;SDS011;50936;51.660;5.616;2024-02-21T13:42:55;5.95;;;2.90;;
64543;SDS011;50936;51.660;5.616;2024-02-21T13:45:45;8.82;;;2.58;;
64543;SDS011;50936;51.660;5.616;2024-02-21T13:48:45;8.43;;;2.92;;
64543;SDS011;50936;51.660;5.616;2024-02-21T13:51:33;9.73;;;3.33;;
64543;SDS011;50936;51.660;5.616;2024-02-21T13:54:24;10.68;;;3.53;;
64543;SDS011;50936;51.660;5.616;2024-02-21T13:57:11;8.27;;;2.85;;
64543;SDS011;50936;51.660;5.616;2024-02-21T14:00:00;5.68;;;2.42;;
64543;SDS011;50936;51.660;5.616;2024-02-21T14:02:57;9.70;;;2.38;;
64543;SDS011;50936;51.660;5.616;2024-02-21T14:05:46;7.32;;;2.70;;
64543;SDS011;50936;51.660;5.616;2024-02-21T14:08:37;8.20;;;2.47;;
64543;SDS011;50936;51.660;5.616;2024-02-21T14:11:26;7.22;;;2.85;;
64543;SDS011;50936;51.660;5.616;2024-02-21T14:14:15;6.10;;;2.55;;
64543;SDS011;50936;51.660;5.616;2024-02-21T14:17:03;8.55;;;2.40;;
64543;SDS011;50936;51.660;5.616;2024-02-21T14:19:50;7.38;;;2.60;;
64543;SDS011;50936;51.660;5.616;2024-02-21T14:22:40;6.60;;;2.63;;
64543;SDS011;50936;51.660;5.616;2024-02-21T14:25:28;5.55;;;2.85;;
64543;SDS011;50936;51.660;5.616;2024-02-21T14:28:16;4.40;;;2.10;;
64543;SDS011;50936;51.660;5.616;2024-02-21T14:31:07;5.35;;;2.60;;
64543;SDS011;50936;51.660;5.616;2024-02-21T14:33:57;5.68;;;2.85;;
64543;SDS011;50936;51.660;5.616;2024-02-21T14:36:45;5.40;;;2.53;;
64543;SDS011;50936;51.660;5.616;2024-02-21T14:39:34;6.85;;;2.83;;
64543;SDS011;50936;51.660;5.616;2024-02-21T14:42:22;8.35;;;3.78;;
64543;SDS011;50936;51.660;5.616;2024-02-21T14:45:09;9.35;;;2.60;;
64543;SDS011;50936;51.660;5.616;2024-02-21T14:47:57;8.80;;;3.08;;
64543;SDS011;50936;51.660;5.616;2024-02-21T14:50:44;6.65;;;3.22;;
64543;SDS011;50936;51.660;5.616;2024-02-21T14:53:31;5.85;;;2.92;;
64543;SDS011;50936;51.660;5.616;2024-02-21T14:56:19;5.57;;;3.13;;
64543;SDS011;50936;51.660;5.616;2024-02-21T14:59:09;6.07;;;2.78;;
64543;SDS011;50936;51.660;5.616;2024-02-21T15:02:07;7.15;;;3.10;;
64543;SDS011;50936;51.660;5.616;2024-02-21T15:04:55;6.45;;;2.75;;
64543;SDS011;50936;51.660;5.616;2024-02-21T15:07:43;6.93;;;2.75;;
64543;SDS011;50936;51.660;5.616;2024-02-21T15:10:30;8.93;;;3.28;;
64543;SDS011;50936;51.660;5.616;2024-02-21T15:13:18;6.65;;;2.95;;
64543;SDS011;50936;51.660;5.616;2024-02-21T15:16:05;9.77;;;3.05;;
64543;SDS011;50936;51.660;5.616;2024-02-21T15:18:52;8.52;;;3.38;;
64543;SDS011;50936;51.660;5.616;2024-02-21T15:21:40;6.93;;;3.00;;
64543;SDS011;50936;51.660;5.616;2024-02-21T15:24:27;6.57;;;3.00;;
64543;SDS011;50936;51.660;5.616;2024-02-21T15:27:15;7.45;;;3.20;;
64543;SDS011;50936;51.660;5.616;2024-02-21T15:30:03;8.02;;;3.20;;
64543;SDS011;50936;51.660;5.616;2024-02-21T15:32:53;6.35;;;2.50;;
64543;SDS011;50936;51.660;5.616;2024-02-21T15:35:42;10.30;;;2.90;;
64543;SDS011;50936;51.660;5.616;2024-02-21T15:38:29;6.55;;;2.78;;
64543;SDS011;50936;51.660;5.616;2024-02-21T15:41:16;6.13;;;2.83;;
64543;SDS011;50936;51.660;5.616;2024-02-21T15:44:04;6.32;;;2.97;;
64543;SDS011;50936;51.660;5.616;2024-02-21T15:46:52;6.68;;;3.00;;
64543;SDS011;50936;51.660;5.616;2024-02-21T15:49:40;6.63;;;3.22;;
64543;SDS011;50936;51.660;5.616;2024-02-21T15:52:28;8.32;;;3.22;;
64543;SDS011;50936;51.660;5.616;2024-02-21T15:55:15;11.20;;;3.80;;
64543;SDS011;50936;51.660;5.616;2024-02-21T15:58:04;7.65;;;3.15;;
64543;SDS011;50936;51.660;5.616;2024-02-21T16:00:51;9.18;;;2.55;;
64543;SDS011;50936;51.660;5.616;2024-02-21T16:03:40;8.52;;;3.42;;
64543;SDS011;50936;51.660;5.616;2024-02-21T16:06:28;8.55;;;3.38;;
64543;SDS011;50936;51.660;5.616;2024-02-21T16:09:16;12.05;;;4.13;;
64543;SDS011;50936;51.660;5.616;2024-02-21T16:12:04;8.68;;;3.60;;
64543;SDS011;50936;51.660;5.616;2024-02-21T16:14:52;9.55;;;3.60;;
64543;SDS011;50936;51.660;5.616;2024-02-21T16:17:39;11.23;;;3.85;;
64543;SDS011;50936;51.660;5.616;2024-02-21T16:20:27;8.63;;;3.25;;
64543;SDS011;50936;51.660;5.616;2024-02-21T16:23:15;10.20;;;3.60;;
64543;SDS011;50936;51.660;5.616;2024-02-21T16:26:03;11.55;;;4.05;;
64543;SDS011;50936;51.660;5.616;2024-02-21T16:28:50;8.57;;;3.88;;
64543;SDS011;50936;51.660;5.616;2024-02-21T16:31:37;9.23;;;3.65;;
64543;SDS011;50936;51.660;5.616;2024-02-21T16:34:25;12.23;;;4.53;;
64543;SDS011;50936;51.660;5.616;2024-02-21T16:37:12;10.65;;;4.20;;
64543;SDS011;50936;51.660;5.616;2024-02-21T16:40:00;11.02;;;4.60;;
64543;SDS011;50936;51.660;5.616;2024-02-21T16:42:48;10.15;;;4.30;;
64543;SDS011;50936;51.660;5.616;2024-02-21T16:48:27;14.25;;;5.80;;
64543;SDS011;50936;51.660;5.616;2024-02-21T16:51:16;10.25;;;4.35;;
64543;SDS011;50936;51.660;5.616;2024-02-21T16:54:04;11.00;;;5.03;;
64543;SDS011;50936;51.660;5.616;2024-02-21T16:56:55;9.27;;;4.00;;
64543;SDS011;50936;51.660;5.616;2024-02-21T16:59:42;8.90;;;3.75;;
64543;SDS011;50936;51.660;5.616;2024-02-21T17:02:30;9.55;;;4.30;;